createdAt,value
2024-03-12T00:01:09.832Z,42.15
2024-03-12T00:03:45.156Z,35.95
2024-03-12T00:06:13.115Z,40.47
2024-03-12T00:08:44.244Z,41.08
2024-03-12T00:11:12.049Z,36.65
2024-03-12T00:13:41.416Z,36.92
2024-03-12T00:16:08.988Z,37.83
2024-03-12T00:18:36.578Z,41.45
2024-03-12T00:21:04.441Z,38.47
2024-03-12T00:23:32.050Z,48.72
2024-03-12T00:26:02.197Z,37.00
2024-03-12T00:28:29.748Z,42.22
2024-03-12T00:30:57.396Z,38.88
2024-03-12T00:33:26.546Z,41.75
2024-03-12T00:35:54.103Z,37.63
2024-03-12T00:38:21.560Z,40.67
2024-03-12T00:40:51.268Z,37.50
2024-03-12T00:43:22.493Z,36.90
2024-03-12T00:45:50.342Z,35.65
2024-03-12T00:48:19.677Z,39.85
2024-03-12T00:50:47.855Z,38.90
2024-03-12T00:53:15.865Z,35.42
2024-03-12T00:55:45.322Z,35.05
2024-03-12T00:58:14.028Z,34.78
2024-03-12T01:00:47.144Z,38.63
2024-03-12T01:03:14.767Z,37.83
2024-03-12T01:05:44.267Z,42.83
2024-03-12T01:08:13.694Z,46.28
2024-03-12T01:10:42.115Z,36.83
2024-03-12T01:13:13.197Z,34.20
2024-03-12T01:15:43.921Z,39.45
2024-03-12T01:18:11.715Z,33.28
2024-03-12T01:20:39.521Z,38.03
2024-03-12T01:23:07.967Z,41.28
2024-03-12T01:25:37.955Z,39.47
2024-03-12T01:28:08.366Z,37.83
2024-03-12T01:30:38.363Z,44.25
2024-03-12T01:33:09.485Z,46.95
2024-03-12T01:35:41.667Z,37.47
2024-03-12T01:38:11.706Z,39.17
2024-03-12T01:40:40.804Z,40.45
2024-03-12T01:43:09.650Z,41.97
2024-03-12T01:45:38.088Z,42.13
2024-03-12T01:48:11.483Z,39.42
2024-03-12T01:50:41.115Z,43.63
2024-03-12T01:53:09.953Z,44.78
2024-03-12T01:55:41.913Z,40.22
2024-03-12T01:58:15.975Z,38.05
2024-03-12T02:00:46.252Z,47.50
2024-03-12T02:03:20.662Z,41.05
2024-03-12T02:05:48.846Z,41.47
2024-03-12T02:08:18.596Z,40.13
2024-03-12T02:10:47.500Z,43.63
2024-03-12T02:13:15.227Z,48.83
2024-03-12T02:15:43.562Z,40.55
2024-03-12T02:18:11.246Z,37.92
2024-03-12T02:20:42.093Z,41.45
2024-03-12T02:23:10.455Z,51.90
2024-03-12T02:25:40.867Z,43.80
2024-03-12T02:28:08.733Z,38.03
2024-03-12T02:30:37.288Z,52.78
2024-03-12T02:33:05.466Z,33.60
2024-03-12T02:35:36.317Z,43.03
2024-03-12T02:38:04.403Z,42.30
2024-03-12T02:40:32.085Z,39.70
2024-03-12T02:43:02.561Z,49.20
2024-03-12T02:45:30.584Z,42.28
2024-03-12T02:47:58.404Z,39.00
2024-03-12T02:50:26.158Z,39.28
2024-03-12T02:52:53.900Z,38.25
2024-03-12T02:55:22.009Z,41.42
2024-03-12T02:57:49.711Z,40.38
2024-03-12T03:00:21.171Z,44.88
2024-03-12T03:02:49.217Z,51.85
2024-03-12T03:05:17.180Z,46.60
2024-03-12T03:07:44.742Z,42.33
2024-03-12T03:10:13.988Z,41.53
2024-03-12T03:12:42.491Z,55.83
2024-03-12T03:15:14.377Z,39.97
2024-03-12T03:17:47.255Z,44.17
2024-03-12T03:20:18.155Z,46.05
2024-03-12T03:22:48.897Z,39.10
2024-03-12T03:25:17.072Z,43.33
2024-03-12T03:27:44.769Z,41.28
2024-03-12T03:30:19.972Z,40.63
2024-03-12T03:32:50.677Z,38.35
2024-03-12T03:35:19.890Z,39.97
2024-03-12T03:37:47.588Z,40.92
2024-03-12T03:40:24.618Z,39.67
2024-03-12T03:42:53.603Z,41.65
2024-03-12T03:45:21.288Z,38.05
2024-03-12T03:47:52.028Z,37.00
2024-03-12T03:50:19.647Z,37.45
2024-03-12T03:52:47.472Z,41.28
2024-03-12T03:55:15.834Z,42.53
2024-03-12T03:57:43.519Z,34.85
2024-03-12T04:00:15.553Z,43.60
2024-03-12T04:02:46.041Z,45.72
2024-03-12T04:05:17.249Z,45.63
2024-03-12T04:07:45.950Z,42.47
2024-03-12T04:10:14.235Z,46.13
2024-03-12T04:12:46.349Z,48.53
2024-03-12T04:15:14.538Z,48.40
2024-03-12T04:17:45.393Z,37.13
2024-03-12T04:20:18.578Z,41.35
2024-03-12T04:22:46.611Z,43.85
2024-03-12T04:25:17.548Z,55.47
2024-03-12T04:27:45.420Z,43.17
2024-03-12T04:30:15.218Z,40.75
2024-03-12T04:32:42.953Z,40.67
2024-03-12T04:35:11.578Z,40.47
2024-03-12T04:37:41.945Z,39.20
2024-03-12T04:40:10.562Z,44.75
2024-03-12T04:42:39.317Z,39.95
2024-03-12T04:45:08.834Z,60.53
2024-03-12T04:47:43.379Z,47.83
2024-03-12T04:50:15.774Z,42.38
2024-03-12T04:52:46.166Z,47.83
2024-03-12T04:55:14.963Z,50.10
2024-03-12T04:57:42.553Z,50.22
2024-03-12T05:00:20.605Z,62.03
2024-03-12T05:02:48.768Z,55.45
2024-03-12T05:05:19.625Z,60.90
2024-03-12T05:07:49.965Z,54.03
2024-03-12T05:10:18.269Z,52.83
2024-03-12T05:12:46.048Z,50.22
2024-03-12T05:15:13.549Z,43.50
2024-03-12T05:17:41.487Z,47.38
2024-03-12T05:20:15.916Z,48.92
2024-03-12T05:22:43.622Z,65.30
2024-03-12T05:25:41.071Z,57.72
2024-03-12T05:28:11.403Z,50.22
2024-03-12T05:30:42.825Z,45.97
2024-03-12T05:33:17.260Z,38.28
2024-03-12T05:35:52.932Z,40.85
2024-03-12T05:38:32.166Z,44.70
2024-03-12T05:41:11.940Z,39.55
2024-03-12T05:43:58.396Z,41.28
2024-03-12T05:46:45.388Z,40.20
2024-03-12T05:49:15.752Z,46.33
2024-03-12T05:51:43.703Z,41.42
2024-03-12T05:54:11.242Z,43.60
2024-03-12T05:56:41.447Z,51.70
2024-03-12T05:59:09.172Z,47.55
2024-03-12T06:01:36.738Z,42.35
2024-03-12T06:04:06.409Z,44.08
2024-03-12T06:06:34.453Z,42.75
2024-03-12T06:09:02.480Z,46.83
2024-03-12T06:11:31.441Z,47.22
2024-03-12T06:14:04.218Z,49.33
2024-03-12T06:16:32.175Z,43.05
2024-03-12T06:18:59.805Z,45.75
2024-03-12T06:21:27.599Z,46.20
2024-03-12T06:23:55.589Z,45.25
2024-03-12T06:26:23.573Z,43.13
2024-03-12T06:28:51.876Z,43.65
2024-03-12T06:31:24.096Z,44.80
2024-03-12T06:33:51.850Z,49.72
2024-03-12T06:36:19.536Z,47.50
2024-03-12T06:38:50.262Z,46.25
2024-03-12T06:41:18.013Z,45.28
2024-03-12T06:43:45.709Z,47.33
2024-03-12T06:46:20.553Z,55.10
2024-03-12T06:48:54.298Z,41.25
2024-03-12T06:51:22.107Z,47.78
2024-03-12T06:53:49.710Z,47.08
2024-03-12T06:56:18.822Z,48.17
2024-03-12T06:58:47.237Z,42.67
2024-03-12T07:01:15.570Z,49.22
2024-03-12T07:03:48.364Z,46.75
2024-03-12T07:06:21.241Z,48.28
2024-03-12T07:08:52.314Z,42.95
2024-03-12T07:11:20.743Z,45.38
2024-03-12T07:13:50.614Z,50.83
2024-03-12T07:16:18.364Z,49.40
2024-03-12T07:18:46.203Z,40.78
2024-03-12T07:21:15.352Z,47.90
2024-03-12T07:23:45.705Z,48.40
2024-03-12T07:26:13.215Z,46.55
2024-03-12T07:28:44.229Z,40.17
2024-03-12T07:31:12.306Z,47.17
2024-03-12T07:33:40.691Z,48.75
2024-03-12T07:36:09.394Z,49.40
2024-03-12T07:38:40.201Z,42.38
2024-03-12T07:41:10.612Z,48.30
2024-03-12T07:43:38.813Z,48.42
2024-03-12T07:46:06.909Z,45.08
2024-03-12T07:48:34.933Z,39.58
2024-03-12T07:51:03.535Z,42.70
2024-03-12T07:53:31.356Z,43.25
2024-03-12T07:56:02.559Z,50.60
2024-03-12T07:58:32.872Z,39.58
2024-03-12T08:01:00.862Z,43.70
2024-03-12T08:03:29.608Z,43.38
2024-03-12T08:05:57.372Z,42.53
2024-03-12T08:08:25.016Z,44.30
2024-03-12T08:10:52.703Z,41.35
2024-03-12T08:13:20.393Z,35.72
2024-03-12T08:15:50.590Z,45.75
2024-03-12T08:18:21.814Z,43.47
2024-03-12T08:20:49.675Z,34.53
2024-03-12T08:23:17.370Z,35.63
2024-03-12T08:25:55.328Z,49.63
2024-03-12T08:28:27.187Z,37.78
2024-03-12T08:31:02.477Z,42.83
2024-03-12T08:33:36.331Z,38.85
2024-03-12T08:36:04.794Z,38.65
2024-03-12T08:38:32.577Z,43.33
2024-03-12T08:41:00.118Z,43.63
2024-03-12T08:43:27.783Z,39.42
2024-03-12T08:45:59.486Z,35.83
2024-03-12T08:48:27.223Z,38.90
2024-03-12T08:50:54.987Z,36.03
2024-03-12T08:53:22.561Z,47.03
2024-03-12T08:55:50.284Z,40.17
2024-03-12T08:58:18.825Z,46.42
2024-03-12T09:00:46.547Z,35.38
2024-03-12T09:03:17.063Z,35.53
2024-03-12T09:05:44.902Z,34.90
2024-03-12T09:08:12.546Z,50.00
2024-03-12T09:10:40.380Z,37.58
2024-03-12T12:20:18.141Z,68.95
2024-03-12T12:22:47.795Z,68.38
2024-03-12T12:25:20.302Z,68.75
2024-03-12T12:27:48.652Z,63.17
2024-03-12T12:30:20.999Z,66.35
2024-03-12T12:32:50.821Z,64.50
2024-03-12T12:35:22.453Z,68.65
2024-03-12T12:37:52.044Z,57.45
2024-03-12T12:40:22.905Z,59.30
2024-03-12T12:42:55.417Z,56.78
2024-03-12T12:45:24.680Z,54.40
2024-03-12T12:47:52.371Z,55.67
2024-03-12T12:50:31.503Z,42.97
2024-03-12T12:53:01.005Z,62.40
2024-03-12T12:55:29.469Z,50.95
2024-03-12T12:58:01.877Z,47.70
2024-03-12T13:00:29.937Z,52.42
2024-03-12T13:03:17.849Z,46.83
2024-03-12T13:05:48.720Z,50.30
2024-03-12T13:08:22.073Z,46.00
2024-03-12T13:11:02.133Z,52.95
2024-03-12T13:13:29.913Z,42.53
2024-03-12T13:15:57.635Z,50.10
2024-03-12T13:18:25.499Z,52.53
2024-03-12T13:20:56.224Z,53.45
2024-03-12T13:23:24.028Z,51.50
2024-03-12T13:25:52.913Z,62.75
2024-03-12T13:28:21.389Z,52.33
2024-03-12T13:30:52.221Z,50.17
2024-03-12T13:33:19.897Z,50.03
2024-03-12T13:35:47.713Z,50.90
2024-03-12T13:38:18.075Z,55.58
2024-03-12T13:40:46.000Z,56.60
2024-03-12T13:43:13.836Z,51.42
2024-03-12T13:45:42.207Z,45.65
2024-03-12T13:48:13.184Z,57.25
2024-03-12T13:50:43.256Z,52.50
2024-03-12T13:53:11.264Z,54.13
2024-03-12T13:55:42.261Z,43.25
2024-03-12T13:58:10.181Z,38.33
2024-03-12T14:00:39.336Z,40.15
2024-03-12T14:03:07.173Z,43.47
2024-03-12T14:05:35.929Z,46.67
2024-03-12T14:08:04.019Z,39.72
2024-03-12T14:10:31.703Z,42.70
2024-03-12T14:13:02.338Z,55.03
2024-03-12T14:15:30.208Z,40.55
2024-03-12T14:17:58.312Z,35.92
2024-03-12T14:20:26.984Z,49.83
2024-03-12T14:22:54.584Z,46.22
2024-03-12T14:25:22.515Z,40.40
2024-03-12T14:27:50.371Z,45.65
2024-03-12T14:30:21.042Z,43.33
2024-03-12T14:32:49.139Z,39.13
2024-03-12T14:35:17.177Z,37.08
2024-03-12T14:37:48.025Z,35.05
2024-03-12T14:40:15.903Z,37.88
2024-03-12T14:42:45.056Z,51.85
2024-03-12T14:45:13.386Z,42.85
2024-03-12T14:47:43.661Z,53.28
2024-03-12T14:50:12.236Z,43.90
2024-03-12T14:52:39.839Z,47.88
2024-03-12T14:55:09.694Z,42.08
2024-03-12T14:57:38.587Z,55.70
2024-03-12T15:00:09.571Z,46.25
2024-03-12T15:02:37.492Z,47.65
2024-03-12T15:05:12.756Z,52.95
2024-03-12T15:07:44.682Z,46.22
2024-03-12T15:10:14.097Z,38.25
2024-03-12T15:12:42.779Z,43.80
2024-03-12T15:15:16.398Z,47.85
2024-03-12T15:17:46.519Z,47.88
2024-03-12T15:20:17.006Z,49.83
2024-03-12T15:22:47.048Z,51.90
2024-03-12T15:25:20.513Z,37.50
2024-03-12T15:27:50.507Z,40.78
2024-03-12T15:30:18.297Z,38.03
2024-03-12T15:32:47.453Z,43.95
2024-03-12T15:35:18.094Z,42.45
2024-03-12T15:37:45.898Z,47.17
2024-03-12T15:40:15.376Z,49.80
2024-03-12T15:42:45.802Z,58.40
2024-03-12T15:45:17.129Z,51.05
2024-03-12T15:47:45.579Z,52.05
2024-03-12T15:50:13.863Z,41.47
2024-03-12T15:52:44.651Z,46.65
2024-03-12T15:55:13.921Z,46.17
2024-03-12T15:57:42.579Z,47.88
2024-03-12T16:00:15.545Z,44.15
2024-03-12T16:02:44.164Z,49.97
2024-03-12T16:05:11.954Z,46.85
2024-03-12T16:07:42.597Z,56.83
2024-03-12T16:10:13.108Z,48.53
2024-03-12T16:12:44.319Z,46.70
2024-03-12T16:15:14.212Z,48.60
2024-03-12T16:17:44.132Z,48.97
2024-03-12T16:20:15.844Z,52.13
2024-03-12T16:22:44.362Z,47.10
2024-03-12T16:25:15.223Z,47.90
2024-03-12T16:27:47.060Z,53.72
2024-03-12T16:30:16.052Z,48.35
2024-03-12T16:32:46.280Z,51.33
2024-03-12T16:35:16.858Z,47.88
2024-03-12T16:37:45.364Z,50.20
2024-03-12T16:40:16.464Z,53.67
2024-03-12T16:42:44.922Z,47.83
2024-03-12T16:45:13.835Z,53.88
2024-03-12T16:47:43.320Z,48.83
2024-03-12T16:50:12.660Z,51.63
2024-03-12T16:52:40.675Z,53.28
2024-03-12T16:55:10.315Z,55.38
2024-03-12T16:57:41.493Z,52.42
2024-03-12T17:00:15.622Z,49.35
2024-03-12T17:02:44.691Z,55.28
2024-03-12T17:05:14.868Z,53.90
2024-03-12T17:07:48.523Z,60.72
2024-03-12T17:10:16.897Z,63.30
2024-03-12T17:12:48.145Z,55.25
2024-03-12T17:15:17.168Z,68.85
2024-03-12T17:17:45.697Z,58.13
2024-03-12T17:20:15.090Z,62.25
2024-03-12T17:22:44.110Z,67.53
2024-03-12T17:25:12.964Z,60.53
2024-03-12T17:27:49.065Z,62.58
2024-03-12T17:30:21.539Z,58.72
2024-03-12T17:32:50.083Z,72.05
2024-03-12T17:35:19.159Z,58.33
2024-03-12T17:37:52.345Z,75.30
2024-03-12T17:40:20.488Z,62.15
2024-03-12T17:42:49.472Z,57.10
2024-03-12T17:45:20.644Z,58.50
2024-03-12T17:47:51.199Z,58.97
2024-03-12T17:50:20.390Z,59.70
2024-03-12T17:52:50.186Z,57.97
2024-03-12T17:55:19.322Z,57.72
2024-03-12T17:57:48.148Z,58.38
2024-03-12T18:00:20.263Z,57.90
2024-03-12T18:02:49.801Z,62.55
2024-03-12T18:05:21.194Z,59.00
2024-03-12T18:07:50.701Z,56.10
2024-03-12T18:10:19.726Z,59.95
2024-03-12T18:12:48.951Z,61.22
2024-03-12T18:15:18.022Z,65.25
2024-03-12T18:17:51.577Z,56.15
2024-03-12T18:20:22.146Z,66.15
2024-03-12T18:22:49.762Z,65.78
2024-03-12T18:25:18.175Z,59.75
2024-03-12T18:27:46.892Z,70.03
2024-03-12T18:30:15.046Z,68.13
2024-03-12T18:32:43.302Z,57.88
2024-03-12T18:35:13.704Z,66.45
2024-03-12T18:37:42.244Z,64.28
2024-03-12T18:40:13.479Z,63.47
2024-03-12T18:42:42.450Z,67.32
2024-03-12T18:45:20.420Z,69.68
2024-03-12T18:47:52.497Z,64.03
2024-03-12T18:50:26.437Z,52.63
2024-03-12T18:52:55.509Z,58.17
2024-03-12T18:55:23.683Z,63.70
2024-03-12T18:57:52.475Z,56.80
2024-03-12T19:00:21.563Z,64.80
2024-03-12T19:02:52.119Z,65.20
2024-03-12T19:05:25.755Z,61.58
2024-03-12T19:07:56.604Z,63.17
2024-03-12T19:10:30.906Z,61.10
2024-03-12T19:13:00.772Z,64.03
2024-03-12T19:15:37.529Z,77.97
2024-03-12T19:18:15.190Z,71.28
2024-03-12T19:20:46.441Z,61.10
2024-03-12T19:23:14.988Z,65.28
2024-03-12T19:25:43.011Z,65.90
2024-03-12T19:28:10.970Z,68.75
2024-03-12T19:30:40.136Z,67.78
2024-03-12T19:33:10.134Z,72.95
2024-03-12T19:35:40.390Z,71.13
2024-03-12T19:38:14.807Z,63.78
2024-03-12T19:40:43.140Z,66.22
2024-03-12T19:43:11.434Z,71.30
2024-03-12T19:45:42.512Z,66.82
2024-03-12T19:48:22.215Z,83.20
2024-03-12T19:50:50.717Z,76.63
2024-03-12T19:53:58.181Z,63.90
2024-03-12T19:56:26.575Z,70.10
2024-03-12T19:59:16.124Z,74.38
2024-03-12T20:01:50.897Z,73.82
2024-03-12T20:04:18.717Z,69.43
2024-03-12T20:06:46.752Z,67.80
2024-03-12T20:09:24.035Z,72.25
2024-03-12T20:11:51.912Z,72.38
2024-03-12T20:14:20.504Z,66.97
2024-03-12T20:16:48.143Z,62.95
2024-03-12T20:19:19.878Z,70.32
2024-03-12T20:21:50.373Z,74.97
2024-03-12T20:24:21.487Z,70.20
2024-03-12T20:26:49.195Z,84.78
2024-03-12T20:29:20.257Z,68.10
2024-03-12T20:31:51.749Z,78.90
2024-03-12T20:34:19.532Z,71.53
2024-03-12T20:36:50.211Z,64.68
2024-03-12T20:39:21.588Z,80.32
2024-03-12T20:41:49.191Z,100.95
2024-03-12T20:44:16.727Z,64.07
2024-03-12T20:46:44.823Z,73.40
2024-03-12T20:49:13.305Z,92.78
2024-03-12T20:51:41.129Z,72.95
2024-03-12T20:54:08.829Z,63.15
2024-03-12T20:56:38.990Z,58.45
2024-03-12T20:59:06.734Z,67.28
2024-03-12T21:01:36.286Z,57.47
2024-03-12T21:04:06.468Z,56.40
2024-03-12T21:06:34.486Z,102.85
2024-03-12T21:09:12.918Z,116.55
2024-03-12T21:11:44.108Z,90.90
2024-03-12T21:14:27.371Z,79.47
2024-03-12T21:16:55.129Z,119.55
2024-03-12T21:19:25.621Z,88.35
2024-03-12T21:22:01.325Z,74.28
2024-03-12T21:24:30.234Z,63.13
2024-03-12T21:27:00.713Z,71.07
2024-03-12T21:29:29.246Z,68.53
2024-03-12T21:32:00.057Z,61.33
2024-03-12T21:34:28.174Z,97.78
2024-03-12T21:36:56.200Z,122.55
2024-03-12T21:39:23.804Z,60.58
2024-03-12T21:41:51.583Z,66.88
2024-03-12T21:44:24.619Z,94.57
2024-03-12T21:46:52.538Z,71.13
2024-03-12T21:49:20.103Z,67.95
2024-03-12T21:51:47.970Z,63.58
2024-03-12T21:54:16.704Z,71.07
2024-03-12T21:56:44.299Z,70.68
2024-03-12T21:59:11.762Z,69.38
2024-03-12T22:01:42.085Z,64.07
2024-03-12T22:04:09.816Z,68.57
2024-03-12T22:06:38.939Z,70.25
2024-03-12T22:09:08.797Z,61.65
2024-03-12T22:11:36.485Z,70.10
2024-03-12T22:14:04.498Z,83.18
2024-03-12T22:16:32.202Z,78.32
2024-03-12T22:19:05.717Z,66.05
2024-03-12T22:21:33.338Z,76.00
2024-03-12T22:24:02.744Z,74.90
2024-03-12T22:26:30.510Z,76.65
2024-03-12T22:28:58.468Z,85.45
2024-03-12T22:31:26.195Z,84.13
2024-03-12T22:33:53.813Z,95.72
2024-03-12T22:36:24.990Z,82.93
2024-03-12T22:38:54.444Z,89.95
2024-03-12T22:41:22.571Z,76.78
2024-03-12T22:43:51.031Z,78.30
2024-03-12T22:46:20.819Z,78.72
2024-03-12T22:48:49.093Z,84.53
2024-03-12T22:51:17.826Z,71.45
2024-03-12T22:53:48.550Z,80.97
2024-03-12T22:56:20.812Z,85.82
2024-03-12T22:58:49.472Z,82.13
2024-03-12T23:01:18.337Z,82.78
2024-03-12T23:03:46.661Z,92.78
2024-03-12T23:06:15.496Z,92.47
2024-03-12T23:08:43.866Z,92.78
2024-03-12T23:11:14.331Z,81.95
2024-03-12T23:13:45.526Z,93.07
2024-03-12T23:16:16.611Z,140.38
2024-03-12T23:18:47.003Z,111.97
2024-03-12T23:21:18.614Z,85.45
2024-03-12T23:23:46.312Z,84.45
2024-03-12T23:26:18.333Z,82.40
2024-03-12T23:28:46.331Z,71.90
2024-03-12T23:31:14.730Z,76.30
2024-03-12T23:33:42.759Z,77.95
2024-03-12T23:36:10.587Z,68.45
2024-03-12T23:38:38.117Z,86.25
2024-03-12T23:41:05.907Z,84.43
2024-03-12T23:43:37.304Z,93.28
2024-03-12T23:46:07.849Z,77.60
2024-03-12T23:48:36.038Z,102.22
2024-03-12T23:51:05.419Z,128.25
2024-03-12T23:53:33.195Z,113.50
2024-03-12T23:56:00.736Z,100.07
2024-03-12T23:58:28.697Z,59.22
